createdAt,value
2019-02-28T00:01:20.032Z,10.85
2019-02-28T00:03:46.607Z,9.75
2019-02-28T00:06:13.291Z,11.73
2019-02-28T00:08:39.856Z,10.78
2019-02-28T00:11:06.515Z,10.98
2019-02-28T00:13:33.064Z,10.90
2019-02-28T00:16:00.222Z,12.10
2019-02-28T00:18:28.068Z,11.10
2019-02-28T00:20:54.769Z,12.98
2019-02-28T00:23:24.053Z,14.83
2019-02-28T00:25:50.530Z,13.60
2019-02-28T00:28:17.127Z,14.30
2019-02-28T00:30:43.688Z,14.03
2019-02-28T00:33:10.187Z,12.93
2019-02-28T00:35:36.941Z,13.95
2019-02-28T00:38:03.657Z,14.65
2019-02-28T00:40:30.227Z,14.20
2019-02-28T00:42:56.937Z,15.15
2019-02-28T00:45:23.600Z,13.72
2019-02-28T00:47:50.111Z,15.58
2019-02-28T00:50:16.760Z,12.63
2019-02-28T00:52:43.212Z,14.28
2019-02-28T00:55:14.501Z,12.93
2019-02-28T00:57:41.691Z,14.65
2019-02-28T01:00:11.956Z,14.73
2019-02-28T01:02:38.544Z,13.45
2019-02-28T01:05:06.087Z,14.18
2019-02-28T01:07:32.604Z,14.93
2019-02-28T01:10:01.366Z,14.65
2019-02-28T01:12:27.470Z,14.47
2019-02-28T01:14:53.945Z,14.43
2019-02-28T01:17:20.557Z,14.70
2019-02-28T01:19:47.028Z,15.13
2019-02-28T01:22:13.603Z,14.40
2019-02-28T01:24:40.091Z,14.95
2019-02-28T01:27:06.552Z,12.50
2019-02-28T01:29:35.696Z,13.40
2019-02-28T01:32:01.743Z,14.80
2019-02-28T01:34:29.119Z,15.30
2019-02-28T01:36:56.725Z,14.68
2019-02-28T01:39:23.484Z,15.32
2019-02-28T01:41:50.492Z,14.07
2019-02-28T01:44:16.990Z,14.87
2019-02-28T01:46:43.448Z,17.45
2019-02-28T01:49:10.049Z,14.65
2019-02-28T01:51:56.378Z,14.90
2019-02-28T01:54:25.140Z,16.52
2019-02-28T01:56:51.419Z,16.15
2019-02-28T01:59:18.198Z,16.35
2019-02-28T02:01:44.654Z,15.90
2019-02-28T02:04:12.575Z,15.88
2019-02-28T02:06:39.706Z,15.78
2019-02-28T02:09:08.075Z,15.28
2019-02-28T02:11:34.958Z,16.75
2019-02-28T02:14:01.457Z,15.83
2019-02-28T02:16:27.940Z,17.00
2019-02-28T02:18:54.609Z,17.50
2019-02-28T02:21:21.190Z,15.53
2019-02-28T02:23:49.596Z,14.58
2019-02-28T02:26:16.412Z,17.82
2019-02-28T02:28:42.885Z,15.75
2019-02-28T02:31:09.549Z,16.80
2019-02-28T02:33:36.021Z,15.43
2019-02-28T02:36:02.818Z,15.15
2019-02-28T02:38:29.286Z,17.07
2019-02-28T02:41:00.546Z,17.20
2019-02-28T02:43:44.327Z,15.03
2019-02-28T02:46:10.819Z,16.85
2019-02-28T02:48:38.462Z,17.15
2019-02-28T02:51:10.711Z,17.73
2019-02-28T02:53:41.525Z,15.13
2019-02-28T02:56:03.888Z,15.48
2019-02-28T02:58:31.011Z,19.23
2019-02-28T03:00:57.599Z,17.12
2019-02-28T03:03:24.084Z,16.57
2019-02-28T03:05:50.528Z,16.05
2019-02-28T03:08:17.009Z,15.78
2019-02-28T03:10:43.577Z,17.15
2019-02-28T03:13:10.060Z,18.27
2019-02-28T03:15:36.613Z,16.67
2019-02-28T03:18:03.294Z,16.77
2019-02-28T03:20:30.079Z,19.40
2019-02-28T03:22:56.542Z,21.65
2019-02-28T03:25:27.693Z,17.90
2019-02-28T03:27:55.395Z,18.35
2019-02-28T03:30:27.977Z,17.62
2019-02-28T03:32:48.523Z,17.85
2019-02-28T03:35:15.131Z,18.40
2019-02-28T03:37:41.669Z,18.27
2019-02-28T03:40:10.240Z,18.10
2019-02-28T03:42:37.241Z,17.73
2019-02-28T03:45:06.919Z,17.55
2019-02-28T03:47:33.389Z,18.50
2019-02-28T03:50:00.004Z,18.62
2019-02-28T03:52:26.492Z,17.32
2019-02-28T03:54:52.976Z,18.27
2019-02-28T03:57:19.533Z,18.00
2019-02-28T03:59:46.222Z,19.60
2019-02-28T04:02:12.773Z,19.67
2019-02-28T04:04:39.456Z,20.27
2019-02-28T04:07:06.008Z,19.00
2019-02-28T04:09:32.610Z,18.82
2019-02-28T04:11:59.069Z,19.92
2019-02-28T04:14:28.334Z,19.23
2019-02-28T04:16:54.547Z,21.05
2019-02-28T04:19:22.804Z,19.80
2019-02-28T04:21:49.893Z,20.55
2019-02-28T04:24:16.324Z,19.75
2019-02-28T04:26:42.896Z,21.12
2019-02-28T04:29:09.353Z,21.95
2019-02-28T04:31:35.844Z,19.23
2019-02-28T04:34:02.298Z,20.72
2019-02-28T04:36:28.873Z,21.52
2019-02-28T04:38:55.431Z,20.10
2019-02-28T04:41:22.260Z,21.15
2019-02-28T04:43:48.628Z,20.02
2019-02-28T04:46:15.121Z,20.90
2019-02-28T04:48:41.582Z,23.18
2019-02-28T04:51:08.225Z,23.85
2019-02-28T04:53:35.064Z,22.35
2019-02-28T04:56:01.552Z,24.60
2019-02-28T04:58:28.021Z,22.67
2019-02-28T05:00:54.508Z,24.35
2019-02-28T05:03:20.979Z,23.12
2019-02-28T05:05:47.682Z,20.95
2019-02-28T05:08:14.317Z,23.62
2019-02-28T05:10:41.084Z,22.35
2019-02-28T05:13:07.676Z,23.65
2019-02-28T05:15:37.190Z,23.80
2019-02-28T05:18:02.700Z,23.35
2019-02-28T05:20:29.261Z,23.45
2019-02-28T05:22:56.036Z,23.77
2019-02-28T05:25:22.404Z,25.02
2019-02-28T05:27:49.006Z,23.52
2019-02-28T05:30:19.531Z,21.77
2019-02-28T05:32:44.341Z,27.17
2019-02-28T05:35:10.912Z,23.90
2019-02-28T05:37:37.612Z,24.85
2019-02-28T05:40:10.387Z,27.98
2019-02-28T05:42:37.030Z,25.70
2019-02-28T05:45:05.621Z,27.80
2019-02-28T05:47:33.071Z,24.43
2019-02-28T05:50:00.246Z,26.42
2019-02-28T05:52:26.633Z,25.72
2019-02-28T05:54:53.117Z,26.17
2019-02-28T05:57:19.675Z,28.00
2019-02-28T05:59:46.178Z,27.00
2019-02-28T06:02:12.632Z,26.93
2019-02-28T06:04:39.221Z,29.45
2019-02-28T06:07:05.676Z,26.17
2019-02-28T06:09:32.353Z,26.97
2019-02-28T06:11:58.935Z,25.95
2019-02-28T06:14:27.555Z,26.35
2019-02-28T06:16:53.901Z,25.62
2019-02-28T06:19:20.443Z,25.23
2019-02-28T06:21:47.002Z,26.75
2019-02-28T06:24:13.601Z,24.15
2019-02-28T06:26:40.402Z,26.35
2019-02-28T06:29:06.874Z,25.70
2019-02-28T06:31:34.493Z,24.40
2019-02-28T06:34:01.351Z,21.05
2019-02-28T06:36:29.156Z,20.68
2019-02-28T06:38:56.905Z,22.93
2019-02-28T06:41:23.496Z,22.27
2019-02-28T06:43:50.247Z,20.85
2019-02-28T06:46:18.343Z,16.52
2019-02-28T06:48:44.861Z,17.37
2019-02-28T06:51:11.401Z,17.67
2019-02-28T06:53:39.472Z,17.70
2019-02-28T06:56:05.941Z,17.82
2019-02-28T06:58:33.312Z,17.67
2019-02-28T07:01:00.468Z,16.85
2019-02-28T07:03:29.022Z,16.05
2019-02-28T07:05:57.538Z,16.50
2019-02-28T07:08:24.940Z,16.23
2019-02-28T07:10:52.147Z,19.10
2019-02-28T07:13:18.757Z,16.07
2019-02-28T07:15:45.407Z,17.15
2019-02-28T07:18:11.996Z,15.93
2019-02-28T07:20:40.480Z,15.93
2019-02-28T07:23:07.371Z,16.55
2019-02-28T07:25:33.932Z,18.23
2019-02-28T07:28:01.516Z,19.35
2019-02-28T07:30:29.222Z,18.20
2019-02-28T07:32:55.957Z,20.70
2019-02-28T07:35:22.596Z,16.35
2019-02-28T07:37:53.211Z,18.48
2019-02-28T07:40:17.803Z,20.02
2019-02-28T07:42:44.679Z,17.92
2019-02-28T07:45:12.349Z,20.05
2019-02-28T07:47:39.041Z,20.85
2019-02-28T07:50:10.731Z,19.87
2019-02-28T07:52:37.328Z,21.48
2019-02-28T07:55:12.745Z,21.40
2019-02-28T07:57:39.409Z,19.07
2019-02-28T08:00:17.151Z,20.32
2019-02-28T08:02:40.672Z,19.77
2019-02-28T08:05:10.656Z,20.57
2019-02-28T08:07:37.117Z,19.15
2019-02-28T08:10:09.519Z,19.25
2019-02-28T08:12:36.089Z,20.10
2019-02-28T08:15:06.575Z,18.37
2019-02-28T08:17:35.331Z,21.63
2019-02-28T08:20:01.630Z,19.97
2019-02-28T08:22:28.369Z,19.40
2019-02-28T08:24:54.872Z,21.50
2019-02-28T08:27:25.434Z,20.30
2019-02-28T08:29:50.245Z,18.23
2019-02-28T08:32:16.736Z,22.73
2019-02-28T08:34:43.495Z,19.57
2019-02-28T08:37:11.137Z,18.70
2019-02-28T08:39:41.242Z,22.10
2019-02-28T08:42:06.682Z,21.00
2019-02-28T08:44:33.276Z,21.53
2019-02-28T08:46:59.805Z,22.30
2019-02-28T08:49:26.476Z,23.00
2019-02-28T08:51:52.928Z,19.60
2019-02-28T08:54:19.494Z,18.53
2019-02-28T08:56:46.200Z,17.50
2019-02-28T08:59:18.439Z,26.37
2019-02-28T09:01:44.627Z,19.50
2019-02-28T09:04:11.412Z,26.70
2019-02-28T09:06:41.044Z,19.80
2019-02-28T09:09:08.759Z,22.93
2019-02-28T09:11:35.440Z,21.33
2019-02-28T09:14:02.233Z,23.47
2019-02-28T09:16:30.893Z,20.27
2019-02-28T09:19:00.939Z,21.33
2019-02-28T09:21:26.173Z,24.53
2019-02-28T09:23:52.641Z,21.47
2019-02-28T09:26:19.117Z,21.80
2019-02-28T09:28:47.549Z,22.57
2019-02-28T09:31:14.482Z,20.80
2019-02-28T09:33:41.307Z,21.07
2019-02-28T09:36:07.810Z,24.07
2019-02-28T09:38:34.396Z,21.73
2019-02-28T09:41:01.357Z,22.60
2019-02-28T09:43:29.369Z,23.70
2019-02-28T09:45:56.027Z,23.40
2019-02-28T09:48:22.786Z,23.30
2019-02-28T09:50:49.561Z,24.00
2019-02-28T09:53:16.740Z,23.07
2019-02-28T09:55:43.413Z,26.40
2019-02-28T09:58:10.006Z,25.43
2019-02-28T10:00:36.660Z,38.27
2019-02-28T10:03:03.562Z,25.70
2019-02-28T10:05:30.042Z,24.17
2019-02-28T10:08:01.592Z,26.37
2019-02-28T10:10:29.878Z,27.30
2019-02-28T10:12:56.984Z,28.30
2019-02-28T10:15:28.862Z,26.10
2019-02-28T10:17:55.520Z,26.70
2019-02-28T10:20:28.164Z,27.10
2019-02-28T10:22:59.675Z,27.63
2019-02-28T10:25:31.875Z,26.67
2019-02-28T10:28:01.612Z,26.53
2019-02-28T10:30:31.826Z,27.87
2019-02-28T10:32:56.177Z,27.80
2019-02-28T10:35:23.057Z,29.37
2019-02-28T10:37:56.975Z,28.13
2019-02-28T10:40:25.158Z,29.07
2019-02-28T10:42:52.184Z,28.13
2019-02-28T10:45:19.962Z,31.57
2019-02-28T10:47:46.621Z,27.80
2019-02-28T10:50:18.017Z,27.03
2019-02-28T10:52:44.602Z,28.70
2019-02-28T10:55:13.282Z,29.23
2019-02-28T10:57:41.476Z,27.53
2019-02-28T11:00:32.664Z,28.60
2019-02-28T11:03:00.322Z,30.00
2019-02-28T11:05:33.515Z,27.50
2019-02-28T11:08:00.876Z,25.90
2019-02-28T11:10:35.475Z,24.37
2019-02-28T11:13:00.845Z,24.03
2019-02-28T11:15:27.793Z,26.20
2019-02-28T11:17:54.499Z,23.43
2019-02-28T11:20:22.333Z,23.33
2019-02-28T11:22:49.649Z,22.07
2019-02-28T11:25:17.946Z,20.63
2019-02-28T11:27:44.729Z,21.27
2019-02-28T11:30:14.192Z,22.50
2019-02-28T11:32:40.885Z,23.20
2019-02-28T11:35:07.786Z,20.50
2019-02-28T11:37:34.876Z,22.60
2019-02-28T11:40:01.533Z,21.37
2019-02-28T11:42:31.174Z,20.80
2019-02-28T11:44:57.973Z,23.00
2019-02-28T11:47:24.864Z,21.03
2019-02-28T11:49:51.332Z,22.80
2019-02-28T11:52:17.800Z,22.47
2019-02-28T11:54:45.222Z,20.20
2019-02-28T11:57:12.589Z,22.93
2019-02-28T11:59:48.254Z,24.60
2019-02-28T12:02:16.104Z,22.03
2019-02-28T12:04:43.112Z,23.50
2019-02-28T12:09:11.825Z,22.27
2019-02-28T12:10:07.063Z,21.50
2019-02-28T12:12:50.463Z,23.83
2019-02-28T12:15:32.726Z,22.50
2019-02-28T12:18:06.794Z,22.03
2019-02-28T12:28:07.047Z,22.27
2019-02-28T12:29:48.970Z,24.03
2019-02-28T12:35:36.249Z,25.77
2019-02-28T12:38:41.729Z,26.17
2019-02-28T12:41:30.803Z,26.73
2019-02-28T12:44:12.451Z,30.30
2019-02-28T12:47:06.450Z,31.90
2019-02-28T12:50:06.900Z,33.43
2019-02-28T12:52:28.653Z,38.20
2019-02-28T12:54:56.861Z,38.63
2019-02-28T12:57:23.518Z,40.07
2019-02-28T12:59:50.099Z,38.40
2019-02-28T13:02:16.683Z,44.67
2019-02-28T13:04:45.108Z,44.30
2019-02-28T13:07:11.794Z,44.50
2019-02-28T13:09:38.479Z,43.23
2019-02-28T13:12:08.102Z,48.07
2019-02-28T13:14:36.873Z,41.97
2019-02-28T13:17:02.020Z,42.77
2019-02-28T13:19:28.716Z,35.77
2019-02-28T13:21:55.288Z,34.00
2019-02-28T13:24:21.984Z,30.83
2019-02-28T13:26:48.585Z,31.03
2019-02-28T13:29:15.174Z,29.27
2019-02-28T13:31:41.740Z,28.07
2019-02-28T13:34:08.383Z,30.53
2019-02-28T13:36:34.757Z,28.53
2019-02-28T13:39:01.607Z,29.13
2019-02-28T13:41:28.104Z,28.00
2019-02-28T13:43:58.630Z,26.55
2019-02-28T13:46:23.031Z,27.07
2019-02-28T13:48:50.594Z,24.80
2019-02-28T13:51:17.416Z,25.08
2019-02-28T13:53:43.842Z,22.87
2019-02-28T13:56:10.741Z,27.62
2019-02-28T13:58:37.392Z,22.67
2019-02-28T14:01:05.209Z,26.42
2019-02-28T14:03:31.803Z,22.67
2019-02-28T14:05:58.531Z,24.00
2019-02-28T14:08:25.090Z,19.37
2019-02-28T14:10:52.797Z,20.07
2019-02-28T14:13:19.366Z,20.25
2019-02-28T14:15:52.594Z,21.23
2019-02-28T14:18:16.725Z,21.80
2019-02-28T14:20:43.521Z,24.10
2019-02-28T14:23:10.266Z,23.60
2019-02-28T14:25:40.990Z,23.80
2019-02-28T14:28:27.730Z,24.27
2019-02-28T14:30:57.255Z,23.27
2019-02-28T14:33:22.855Z,23.43
2019-02-28T14:35:49.810Z,25.73
2019-02-28T14:38:16.667Z,22.13
2019-02-28T14:40:43.162Z,23.80
2019-02-28T14:43:09.879Z,18.75
2019-02-28T14:45:44.219Z,20.40
2019-02-28T14:48:10.888Z,20.23
2019-02-28T14:50:37.806Z,18.37
2019-02-28T14:53:04.485Z,18.10
2019-02-28T14:55:32.570Z,17.65
2019-02-28T14:57:59.563Z,16.53
2019-02-28T15:03:18.717Z,14.10
2019-02-28T15:05:45.209Z,13.87
2019-02-28T15:08:15.000Z,13.77
2019-02-28T15:10:40.601Z,11.90
2019-02-28T15:13:07.415Z,11.77
2019-02-28T15:15:36.120Z,13.17
2019-02-28T15:18:03.576Z,12.33
2019-02-28T15:20:32.923Z,11.70
2019-02-28T15:22:59.685Z,11.13
2019-02-28T15:25:50.818Z,10.70
2019-02-28T15:28:16.813Z,11.80
2019-02-28T15:30:43.278Z,10.70
2019-02-28T15:33:09.732Z,10.90
2019-02-28T15:35:36.777Z,10.50
2019-02-28T15:38:05.806Z,10.10
2019-02-28T15:40:51.890Z,10.33
2019-02-28T15:43:18.569Z,8.70
2019-02-28T15:45:45.366Z,8.75
2019-02-28T15:48:11.832Z,8.57
2019-02-28T15:50:38.537Z,8.80
2019-02-28T15:53:07.635Z,8.50
2019-02-28T15:55:35.078Z,9.50
2019-02-28T15:58:05.878Z,8.87
2019-02-28T16:00:32.655Z,9.80
2019-02-28T16:02:59.413Z,9.25
2019-02-28T16:05:26.106Z,9.13
2019-02-28T16:07:53.175Z,9.10
2019-02-28T16:10:22.604Z,10.07
2019-02-28T16:12:50.138Z,9.90
2019-02-28T16:15:18.088Z,10.00
2019-02-28T16:17:44.891Z,10.70
2019-02-28T16:20:13.081Z,10.70
2019-02-28T16:22:39.782Z,11.53
2019-02-28T16:25:11.448Z,11.87
2019-02-28T16:27:38.267Z,10.97
2019-02-28T16:30:08.533Z,9.97
2019-02-28T16:32:35.035Z,10.33
2019-02-28T16:35:01.691Z,9.97
2019-02-28T16:37:28.220Z,10.00
2019-02-28T16:39:54.697Z,9.10
2019-02-28T16:42:21.289Z,10.73
2019-02-28T16:44:47.770Z,9.53
2019-02-28T16:47:14.432Z,10.00
2019-02-28T16:49:41.439Z,9.00
2019-02-28T16:52:09.497Z,11.33
2019-02-28T16:54:36.055Z,9.63
2019-02-28T16:57:05.764Z,9.73
2019-02-28T16:59:32.479Z,9.90
2019-02-28T17:01:59.594Z,8.37
2019-02-28T17:04:26.096Z,8.70
2019-02-28T17:06:52.680Z,9.37
2019-02-28T17:09:21.268Z,9.25
2019-02-28T17:11:52.502Z,7.10
2019-02-28T17:14:18.992Z,8.03
2019-02-28T17:16:51.499Z,8.30
2019-02-28T17:19:18.015Z,8.75
2019-02-28T17:21:44.564Z,9.30
2019-02-28T17:24:12.287Z,7.20
2019-02-28T17:26:53.940Z,8.65
2019-02-28T17:29:25.213Z,8.10
2019-02-28T17:31:50.805Z,7.45
2019-02-28T17:34:17.888Z,8.30
2019-02-28T17:36:47.696Z,10.35
2019-02-28T17:39:14.846Z,9.23
2019-02-28T17:41:41.376Z,8.65
2019-02-28T17:44:23.628Z,9.40
2019-02-28T17:46:52.512Z,8.48
2019-02-28T17:49:40.651Z,8.93
2019-02-28T17:52:14.007Z,8.23
2019-02-28T17:54:57.326Z,8.00
2019-02-28T17:57:28.140Z,9.63
2019-02-28T18:00:01.207Z,9.20
2019-02-28T18:02:49.912Z,8.75
2019-02-28T18:05:47.162Z,9.30
2019-02-28T18:08:20.452Z,10.13
2019-02-28T18:11:03.165Z,10.65
2019-02-28T18:13:45.784Z,9.95
2019-02-28T18:16:21.623Z,11.03
2019-02-28T18:19:09.292Z,9.45
2019-02-28T18:21:41.077Z,9.83
2019-02-28T18:24:11.952Z,8.63
2019-02-28T18:26:48.338Z,9.50
2019-02-28T18:29:36.980Z,8.43
2019-02-28T18:32:03.655Z,9.53
2019-02-28T18:34:30.885Z,7.75
2019-02-28T18:36:57.354Z,8.93
2019-02-28T18:39:25.383Z,8.93
2019-02-28T18:41:52.084Z,9.78
2019-02-28T18:44:18.597Z,8.95
2019-02-28T18:46:45.079Z,8.43
2019-02-28T18:49:11.679Z,8.68
2019-02-28T18:51:38.340Z,9.58
2019-02-28T18:54:04.748Z,9.23
2019-02-28T18:56:31.409Z,10.40
2019-02-28T18:58:57.901Z,10.03
2019-02-28T19:01:24.589Z,10.10
2019-02-28T19:04:11.226Z,9.28
2019-02-28T19:06:37.796Z,8.48
2019-02-28T19:09:17.060Z,8.18
2019-02-28T19:11:43.535Z,8.63
2019-02-28T19:14:10.129Z,8.45
2019-02-28T19:16:36.697Z,9.13
2019-02-28T19:19:03.383Z,8.75
2019-02-28T19:21:29.856Z,7.47
2019-02-28T19:23:56.456Z,9.30
2019-02-28T19:26:23.151Z,10.20
2019-02-28T19:28:49.775Z,10.10
2019-02-28T19:31:16.387Z,10.28
2019-02-28T19:33:42.943Z,10.68
2019-02-28T19:36:09.476Z,11.15
2019-02-28T19:38:36.037Z,10.08
2019-02-28T19:41:02.739Z,10.85
2019-02-28T19:43:29.322Z,8.83
2019-02-28T19:45:56.163Z,12.28
2019-02-28T19:48:22.734Z,13.08
2019-02-28T19:50:49.497Z,12.35
2019-02-28T19:53:16.052Z,13.00
2019-02-28T19:55:42.739Z,12.37
2019-02-28T19:58:09.189Z,12.30
2019-02-28T20:00:35.570Z,12.15
2019-02-28T20:03:02.176Z,12.37
2019-02-28T20:05:28.944Z,14.23
2019-02-28T20:07:55.644Z,14.87
2019-02-28T20:10:22.450Z,13.22
2019-02-28T20:12:49.044Z,12.95
2019-02-28T20:15:16.939Z,12.82
2019-02-28T20:17:43.515Z,14.40
2019-02-28T20:20:15.272Z,13.03
2019-02-28T20:22:41.999Z,14.18
2019-02-28T20:25:10.597Z,15.20
2019-02-28T20:27:37.176Z,12.60
2019-02-28T20:30:07.184Z,14.70
2019-02-28T20:32:33.860Z,16.05
2019-02-28T20:35:00.395Z,15.32
2019-02-28T20:37:27.004Z,12.80
2019-02-28T20:39:53.712Z,12.45
2019-02-28T20:42:20.190Z,12.90
2019-02-28T20:44:46.786Z,13.80
2019-02-28T20:47:13.254Z,12.87
2019-02-28T20:49:39.870Z,13.58
2019-02-28T20:52:06.554Z,13.38
2019-02-28T20:54:33.180Z,13.32
2019-02-28T20:57:00.149Z,13.50
2019-02-28T20:59:26.607Z,11.73
2019-02-28T21:01:53.204Z,11.53
2019-02-28T21:04:19.763Z,13.00
2019-02-28T21:06:46.375Z,10.90
2019-02-28T21:09:14.354Z,12.28
2019-02-28T21:11:40.947Z,10.72
2019-02-28T21:14:07.896Z,11.08
2019-02-28T21:16:34.396Z,11.35
2019-02-28T21:19:00.881Z,10.82
2019-02-28T21:21:27.484Z,10.40
2019-02-28T21:23:53.941Z,9.40
2019-02-28T21:26:20.589Z,10.15
2019-02-28T21:28:47.801Z,9.60
2019-02-28T21:31:14.835Z,8.90
2019-02-28T21:33:41.430Z,9.93
2019-02-28T21:36:08.352Z,12.33
2019-02-28T21:38:34.925Z,13.78
2019-02-28T21:41:01.904Z,13.45
2019-02-28T21:43:28.584Z,13.95
2019-02-28T21:45:55.092Z,11.63
2019-02-28T21:48:21.598Z,9.60
2019-02-28T21:50:48.152Z,10.58
2019-02-28T21:53:14.662Z,8.68
2019-02-28T21:55:41.237Z,8.03
2019-02-28T21:58:08.121Z,7.08
2019-02-28T22:00:34.606Z,8.35
2019-02-28T22:03:01.348Z,7.15
2019-02-28T22:05:27.998Z,8.43
2019-02-28T22:07:54.592Z,7.92
2019-02-28T22:10:21.160Z,8.05
2019-02-28T22:12:47.964Z,9.93
2019-02-28T22:15:16.807Z,9.73
2019-02-28T22:17:43.460Z,8.08
2019-02-28T22:20:11.681Z,10.75
2019-02-28T22:22:38.252Z,9.50
2019-02-28T22:25:07.453Z,10.13
2019-02-28T22:27:34.035Z,9.95
2019-02-28T22:30:02.644Z,8.43
2019-02-28T22:32:31.154Z,7.92
2019-02-28T22:34:59.524Z,8.60
2019-02-28T22:37:26.071Z,6.60
2019-02-28T22:39:52.846Z,7.05
2019-02-28T22:42:22.380Z,7.08
2019-02-28T22:44:47.819Z,6.70
2019-02-28T22:47:14.777Z,6.40
2019-02-28T22:49:41.422Z,5.85
2019-02-28T22:52:07.987Z,4.85
2019-02-28T22:54:34.601Z,5.12
2019-02-28T22:57:20.962Z,4.97
2019-02-28T22:59:47.991Z,4.50
2019-02-28T23:02:14.788Z,5.50
2019-02-28T23:04:41.352Z,5.53
2019-02-28T23:07:08.240Z,3.75
2019-02-28T23:09:34.928Z,3.35
2019-02-28T23:12:01.557Z,3.92
2019-02-28T23:14:28.248Z,3.90
2019-02-28T23:16:54.656Z,3.27
2019-02-28T23:19:21.233Z,2.77
2019-02-28T23:21:47.813Z,3.20
2019-02-28T23:24:14.284Z,3.77
2019-02-28T23:27:09.211Z,4.15
2019-02-28T23:29:35.882Z,3.45
2019-02-28T23:32:35.333Z,4.72
2019-02-28T23:35:04.664Z,5.05
2019-02-28T23:37:31.303Z,4.75
2019-02-28T23:39:57.773Z,5.83
2019-02-28T23:42:24.756Z,6.12
2019-02-28T23:44:51.387Z,6.50
2019-02-28T23:47:17.866Z,6.05
2019-02-28T23:49:44.360Z,6.20
2019-02-28T23:52:11.060Z,6.28
2019-02-28T23:54:37.649Z,6.05
2019-02-28T23:57:04.412Z,5.60
2019-02-28T23:59:30.921Z,6.50
